Time;durP1;ratioP1;P1;durP2;ratioP2;P2;SDS_P1;SDS_P2;PMS_P1;PMS_P2;Temp;Humidity;BMP_temperature;BMP_pressure;BME280_temperature;BME280_humidity;BME280_pressure;Samples;Min_cycle;Max_cycle;Signal;HPM_P1;HPM_P2
2022/04/16 00:01:09;;;;;;;2.10;1.90;;;20.60;51.80;;;;;;4992855;28;20212;-70
2022/04/16 00:03:35;;;;;;;2.17;2.00;;;20.50;51.70;;;;;;5008972;28;20193;-70
2022/04/16 00:06:02;;;;;;;1.92;1.83;;;20.60;51.80;;;;;;4992583;28;20180;-70
2022/04/16 00:08:30;;;;;;;1.60;1.50;;;20.60;51.80;;;;;;4993441;28;20209;-70
2022/04/16 00:10:57;;;;;;;2.13;1.90;;;20.60;51.80;;;;;;4992607;28;20229;-71
2022/04/16 00:13:23;;;;;;;2.20;2.00;;;20.50;51.70;;;;;;4992349;28;20181;-70
2022/04/16 00:15:52;;;;;;;2.20;2.00;;;20.50;51.70;;;;;;4992281;28;20656;-71
2022/04/16 00:18:19;;;;;;;2.25;2.05;;;20.60;51.80;;;;;;4993590;28;20189;-71
2022/04/16 00:20:51;;;;;;;1.92;1.80;;;20.60;51.80;;;;;;4991940;28;20295;-70
2022/04/16 00:23:21;;;;;;;2.25;2.05;;;20.60;51.80;;;;;;4992700;28;20275;-71
2022/04/16 00:25:48;;;;;;;1.75;1.65;;;20.50;51.70;;;;;;4976173;28;20189;-70
2022/04/16 00:28:15;;;;;;;2.00;1.90;;;20.50;51.70;;;;;;4992145;28;20217;-70
2022/04/16 00:30:41;;;;;;;2.15;1.95;;;20.50;51.70;;;;;;4992078;28;20201;-70
2022/04/16 00:33:10;;;;;;;2.00;1.90;;;20.50;51.70;;;;;;5008469;28;20306;-71
2022/04/16 00:35:37;;;;;;;2.00;1.90;;;20.50;51.70;;;;;;4993637;28;20260;-70
2022/04/16 00:38:04;;;;;;;2.92;1.85;;;20.50;51.70;;;;;;4992270;28;20185;-71
2022/04/16 00:40:29;;;;;;;1.88;1.77;;;20.50;51.70;;;;;;4991916;28;20208;-70
2022/04/16 00:42:55;;;;;;;2.85;1.95;;;20.50;51.70;;;;;;4992007;28;20207;-71
2022/04/16 00:45:22;;;;;;;1.95;1.85;;;20.50;51.70;;;;;;4993485;28;20177;-71
2022/04/16 00:47:48;;;;;;;2.28;2.00;;;20.50;51.70;;;;;;4993213;28;20688;-71
2022/04/16 00:50:14;;;;;;;1.83;1.73;;;20.50;51.70;;;;;;4993302;28;20216;-71
2022/04/16 00:52:40;;;;;;;1.95;1.73;;;20.50;51.70;;;;;;4975661;28;20193;-71
2022/04/16 00:55:08;;;;;;;1.90;1.75;;;20.50;51.70;;;;;;4992536;28;20215;-71
2022/04/16 00:57:39;;;;;;;1.75;1.65;;;20.50;51.70;;;;;;4991000;28;20193;-70
2022/04/16 01:00:08;;;;;;;1.73;1.63;;;20.50;51.70;;;;;;4992052;28;20204;-70
2022/04/16 01:02:35;;;;;;;1.70;1.60;;;20.50;51.70;;;;;;5008662;28;20212;-71
2022/04/16 01:05:04;;;;;;;1.95;1.55;;;20.50;51.70;;;;;;5008129;28;20187;-70
2022/04/16 01:07:30;;;;;;;1.70;1.60;;;20.50;51.70;;;;;;4991705;28;20216;-70
2022/04/16 01:09:56;;;;;;;1.80;1.70;;;20.50;51.70;;;;;;5008025;28;20219;-70
2022/04/16 01:12:22;;;;;;;1.58;1.48;;;20.50;51.70;;;;;;5008292;28;20275;-71
2022/04/16 01:14:50;;;;;;;1.58;1.48;;;20.50;51.70;;;;;;5008010;28;20185;-71
2022/04/16 01:17:17;;;;;;;1.90;1.80;;;20.50;51.70;;;;;;4991420;28;20193;-70
2022/04/16 01:19:43;;;;;;;1.75;1.65;;;20.50;51.70;;;;;;4992853;28;20181;-70
2022/04/16 01:22:12;;;;;;;2.00;1.80;;;20.50;51.70;;;;;;4991737;28;20212;-70
2022/04/16 01:24:43;;;;;;;1.80;1.70;;;20.50;51.70;;;;;;4991854;28;20216;-70
2022/04/16 01:27:11;;;;;;;1.90;1.80;;;20.50;51.70;;;;;;4991651;28;20238;-71
2022/04/16 01:29:37;;;;;;;2.03;1.88;;;20.50;51.70;;;;;;5008129;28;20193;-71
2022/04/16 01:32:03;;;;;;;1.63;1.52;;;20.40;51.60;;;;;;4991528;28;20568;-71
2022/04/16 01:34:29;;;;;;;1.83;1.73;;;20.50;51.70;;;;;;4991646;28;20177;-71
2022/04/16 01:36:57;;;;;;;1.75;1.65;;;20.50;51.70;;;;;;4991649;28;20405;-71
2022/04/16 01:39:23;;;;;;;1.70;1.60;;;20.50;51.70;;;;;;4992666;28;20280;-71
2022/04/16 01:41:49;;;;;;;1.92;1.83;;;20.40;51.60;;;;;;4991597;28;20252;-71
2022/04/16 01:44:15;;;;;;;1.73;1.63;;;20.40;51.60;;;;;;4992203;28;20231;-71
2022/04/16 01:46:41;;;;;;;1.70;1.60;;;20.40;51.60;;;;;;4975753;28;20185;-71
2022/04/16 01:49:09;;;;;;;1.50;1.40;;;20.40;51.60;;;;;;4991499;28;20672;-71
2022/04/16 01:51:35;;;;;;;1.48;1.38;;;20.40;51.60;;;;;;4991190;28;20220;-71
2022/04/16 01:54:01;;;;;;;1.80;1.67;;;20.40;51.60;;;;;;4991521;28;20213;-71
2022/04/16 01:56:27;;;;;;;1.65;1.55;;;20.40;51.60;;;;;;4991785;28;20185;-71
2022/04/16 01:58:53;;;;;;;1.55;1.45;;;20.40;51.60;;;;;;4991224;28;20185;-70
2022/04/16 02:01:19;;;;;;;1.67;1.50;;;20.40;51.60;;;;;;4992518;28;20232;-70
2022/04/16 02:03:45;;;;;;;1.63;1.52;;;20.40;51.60;;;;;;4991383;28;20228;-71
2022/04/16 02:06:10;;;;;;;1.55;1.40;;;20.40;51.60;;;;;;4975137;28;20193;-71
2022/04/16 02:08:36;;;;;;;1.80;1.70;;;20.40;51.60;;;;;;4994085;28;20212;-70
2022/04/16 02:11:02;;;;;;;1.55;1.45;;;20.40;51.60;;;;;;4995030;28;20211;-71
2022/04/16 02:13:28;;;;;;;2.20;1.70;;;20.40;51.60;;;;;;4994937;28;20192;-71
2022/04/16 02:15:54;;;;;;;1.88;1.67;;;20.40;51.60;;;;;;4994855;28;20551;-71
2022/04/16 02:18:21;;;;;;;1.60;1.50;;;20.40;51.60;;;;;;4996439;28;20252;-71
2022/04/16 02:20:46;;;;;;;1.70;1.60;;;20.40;51.60;;;;;;4995678;28;20231;-70
2022/04/16 02:23:12;;;;;;;2.38;1.77;;;20.40;52.20;;;;;;4994605;28;20669;-70
2022/04/16 02:25:41;;;;;;;1.77;1.67;;;20.40;51.60;;;;;;4995827;28;20196;-70
2022/04/16 02:28:08;;;;;;;1.80;1.70;;;20.40;51.60;;;;;;4978571;28;20219;-71
2022/04/16 02:30:33;;;;;;;1.92;1.70;;;20.40;51.60;;;;;;5011028;28;20679;-70
2022/04/16 02:33:00;;;;;;;1.60;1.50;;;20.40;51.60;;;;;;4995819;28;20177;-71
2022/04/16 02:35:26;;;;;;;1.55;1.45;;;20.40;51.60;;;;;;4995141;28;20189;-71
2022/04/16 02:37:51;;;;;;;1.60;1.50;;;20.30;51.50;;;;;;5004905;28;20275;-71
2022/04/16 02:40:17;;;;;;;1.58;1.48;;;20.40;51.60;;;;;;5018125;28;20215;-71
2022/04/16 02:42:45;;;;;;;1.60;1.50;;;20.40;51.60;;;;;;5000797;28;20186;-71
2022/04/16 02:47:59;;;;;;;1.60;1.50;;;20.40;51.60;;;;;;5017680;28;20337;-71
2022/04/16 02:50:25;;;;;;;1.75;1.45;;;20.40;51.60;;;;;;5017108;28;20280;-70
2022/04/16 02:52:53;;;;;;;1.58;1.48;;;20.40;51.60;;;;;;5017142;28;20179;-71
2022/04/16 02:55:19;;;;;;;1.58;1.48;;;20.40;51.60;;;;;;5034927;28;20189;-71
2022/04/16 02:57:46;;;;;;;1.60;1.50;;;20.40;51.60;;;;;;5017691;28;20191;-71
2022/04/16 03:00:14;;;;;;;1.45;1.35;;;20.40;51.60;;;;;;5018785;28;20677;-71
2022/04/16 03:02:41;;;;;;;1.70;1.60;;;20.40;51.60;;;;;;5017435;28;20199;-70
2022/04/16 03:05:08;;;;;;;1.85;1.75;;;20.40;51.60;;;;;;5005366;28;20283;-71
2022/04/16 03:07:38;;;;;;;1.60;1.50;;;20.30;51.60;;;;;;4997218;28;20266;-70
2022/04/16 03:10:09;;;;;;;1.65;1.55;;;20.30;51.50;;;;;;5014587;28;20343;-71
2022/04/16 03:12:51;;;;;;;1.58;1.48;;;20.30;51.40;;;;;;5014326;28;20179;-71
2022/04/16 03:18:04;;;;;;;1.70;1.60;;;20.30;51.50;;;;;;5014292;28;20195;-70
2022/04/16 03:20:31;;;;;;;1.55;1.45;;;20.30;51.50;;;;;;5013187;28;20203;-70
2022/04/16 03:22:58;;;;;;;1.35;1.25;;;20.30;51.50;;;;;;5013880;28;20263;-70
2022/04/16 03:25:28;;;;;;;1.48;1.38;;;20.30;51.50;;;;;;4996722;28;20212;-71
2022/04/16 03:27:55;;;;;;;1.50;1.40;;;20.30;51.50;;;;;;4996754;28;20216;-71
2022/04/16 03:30:23;;;;;;;1.85;1.75;;;20.30;51.50;;;;;;4980209;28;20215;-71
2022/04/16 03:32:50;;;;;;;1.50;1.40;;;20.30;51.50;;;;;;4996331;28;20168;-71
2022/04/16 03:35:19;;;;;;;1.60;1.50;;;20.30;51.50;;;;;;4980278;28;20196;-70
2022/04/16 03:37:45;;;;;;;1.50;1.40;;;20.30;51.50;;;;;;4996418;28;20216;-71
2022/04/16 03:40:15;;;;;;;1.70;1.60;;;20.30;51.50;;;;;;4996548;28;20262;-70
2022/04/16 03:42:50;;;;;;;1.80;1.70;;;20.30;51.50;;;;;;4980036;28;20663;-71
2022/04/16 03:45:23;;;;;;;1.50;1.40;;;20.30;51.30;;;;;;4996175;28;20179;-71
2022/04/16 03:47:50;;;;;;;1.70;1.60;;;20.30;51.40;;;;;;5013651;28;20192;-71
2022/04/16 03:52:56;;;;;;;1.27;1.20;;;20.30;51.50;;;;;;5009870;28;20203;-73
2022/04/16 04:00:58;;;;;;;1.83;1.73;;;20.30;51.50;;;;;;5007603;28;20212;-71
2022/04/16 04:03:25;;;;;;;1.73;1.63;;;20.30;51.50;;;;;;4993842;28;20172;-71
2022/04/16 04:05:54;;;;;;;1.80;1.70;;;20.30;51.50;;;;;;4992815;28;20193;-71
2022/04/16 04:08:22;;;;;;;2.08;1.70;;;20.30;51.40;;;;;;4976401;28;20223;-71
2022/04/16 04:10:48;;;;;;;1.60;1.50;;;20.30;51.30;;;;;;4976007;28;20239;-71
2022/04/16 04:13:16;;;;;;;1.50;1.40;;;20.20;51.30;;;;;;4976155;28;20185;-71
2022/04/16 04:15:43;;;;;;;1.52;1.42;;;20.20;51.20;;;;;;4992260;28;20672;-71
2022/04/16 04:18:09;;;;;;;1.50;1.40;;;20.30;51.20;;;;;;4992453;28;20231;-71
2022/04/16 04:20:35;;;;;;;1.17;1.17;;;20.20;51.20;;;;;;4992370;28;20209;-71
2022/04/16 04:23:03;;;;;;;1.50;1.40;;;20.20;51.20;;;;;;4992126;28;20196;-71
2022/04/16 04:25:29;;;;;;;1.50;1.40;;;20.20;51.30;;;;;;4992098;28;20189;-71
2022/04/16 04:27:55;;;;;;;1.48;1.38;;;20.20;51.30;;;;;;4993410;28;20213;-71
2022/04/16 04:30:22;;;;;;;1.52;1.42;;;20.20;51.40;;;;;;4975840;28;20185;-71
2022/04/16 04:32:48;;;;;;;1.50;1.40;;;20.20;51.40;;;;;;4975484;28;20205;-71
2022/04/16 04:35:14;;;;;;;1.67;1.58;;;20.20;51.40;;;;;;4975790;28;20204;-71
2022/04/16 04:37:41;;;;;;;1.83;1.70;;;20.20;51.40;;;;;;4975814;28;20185;-71
2022/04/16 04:40:07;;;;;;;1.55;1.45;;;20.20;51.40;;;;;;4976166;28;20189;-71
2022/04/16 04:42:35;;;;;;;1.70;1.60;;;20.20;51.40;;;;;;4975503;28;20307;-70
2022/04/16 04:45:13;;;;;;;1.85;1.73;;;20.20;51.50;;;;;;4975950;28;20187;-71
2022/04/16 04:47:40;;;;;;;1.92;1.83;;;20.20;51.40;;;;;;4975594;28;20216;-71
2022/04/16 04:50:07;;;;;;;2.00;1.90;;;20.20;51.40;;;;;;4975617;28;20212;-71
2022/04/16 04:52:35;;;;;;;1.83;1.73;;;20.20;51.30;;;;;;4975374;28;20250;-71
2022/04/16 04:55:01;;;;;;;1.95;1.85;;;20.20;51.30;;;;;;4975851;28;20181;-71
2022/04/16 04:57:28;;;;;;;2.10;2.00;;;20.20;51.30;;;;;;4975936;28;20196;-71
2022/04/16 04:59:54;;;;;;;1.80;1.70;;;20.20;51.20;;;;;;4975837;28;20243;-71
2022/04/16 05:02:20;;;;;;;2.30;2.20;;;20.20;51.20;;;;;;4991637;28;20207;-71
2022/04/16 05:04:46;;;;;;;1.67;1.58;;;20.20;51.20;;;;;;4975759;28;20188;-71
2022/04/16 05:07:12;;;;;;;2.10;2.00;;;20.20;51.20;;;;;;4994824;28;20177;-71
2022/04/16 05:09:39;;;;;;;1.70;1.60;;;20.20;51.20;;;;;;4979562;28;20230;-71
2022/04/16 05:12:05;;;;;;;1.88;1.77;;;20.20;51.20;;;;;;4991492;28;20201;-71
2022/04/16 05:14:32;;;;;;;1.80;1.70;;;20.20;51.30;;;;;;4991966;28;20703;-71
2022/04/16 05:16:58;;;;;;;1.70;1.60;;;20.20;51.30;;;;;;4975375;28;20197;-71
2022/04/16 05:19:24;;;;;;;1.80;1.70;;;20.20;51.30;;;;;;4975447;28;20185;-70
2022/04/16 05:21:50;;;;;;;1.60;1.50;;;20.20;51.40;;;;;;4975201;28;20251;-71
2022/04/16 05:24:15;;;;;;;1.50;1.40;;;20.20;51.40;;;;;;4991745;28;20193;-71
2022/04/16 05:26:41;;;;;;;1.40;1.30;;;20.20;51.40;;;;;;4975679;28;20287;-70
2022/04/16 05:29:07;;;;;;;1.70;1.60;;;20.20;51.40;;;;;;4975478;28;20209;-71
2022/04/16 05:31:34;;;;;;;1.40;1.30;;;20.10;51.30;;;;;;4992793;28;20284;-71
2022/04/16 05:34:18;;;;;;;1.60;1.50;;;20.20;51.40;;;;;;4975229;28;20181;-71
2022/04/16 05:36:49;;;;;;;1.98;1.85;;;20.20;51.40;;;;;;4975249;28;20212;-71
2022/04/16 05:39:16;;;;;;;2.03;1.92;;;20.20;51.30;;;;;;4989081;28;20188;-71
2022/04/16 05:41:42;;;;;;;1.90;1.80;;;20.20;51.20;;;;;;4991174;28;20253;-73
2022/04/16 05:44:07;;;;;;;2.00;1.90;;;20.20;51.00;;;;;;4995087;28;20664;-73
2022/04/16 05:46:33;;;;;;;2.00;1.90;;;20.20;51.20;;;;;;4995007;28;20291;-73
2022/04/16 05:48:59;;;;;;;2.30;2.00;;;20.20;51.10;;;;;;4975505;28;20217;-73
2022/04/16 05:51:26;;;;;;;1.80;1.70;;;20.20;51.00;;;;;;5008027;28;20212;-73
2022/04/16 05:53:53;;;;;;;2.60;2.08;;;20.20;51.10;;;;;;5011100;28;20184;-73
2022/04/16 05:56:21;;;;;;;1.90;1.80;;;20.20;51.10;;;;;;4995207;28;20184;-74
2022/04/16 05:58:47;;;;;;;1.55;1.45;;;20.20;51.00;;;;;;4978608;28;20227;-73
2022/04/16 06:01:13;;;;;;;1.95;1.80;;;20.20;51.00;;;;;;4994716;28;20247;-73
2022/04/16 06:03:40;;;;;;;1.83;1.73;;;20.20;51.00;;;;;;4994815;28;20181;-74
2022/04/16 06:06:09;;;;;;;1.50;1.40;;;20.30;51.20;;;;;;4978560;28;20199;-73
2022/04/16 06:08:36;;;;;;;1.70;1.60;;;20.20;51.00;;;;;;4994594;28;20209;-73
2022/04/16 06:11:06;;;;;;;1.77;1.67;;;20.30;51.20;;;;;;4994721;28;20266;-73
2022/04/16 06:13:32;;;;;;;1.88;1.77;;;20.30;51.10;;;;;;4994959;28;20273;-73
2022/04/16 06:15:59;;;;;;;1.65;1.55;;;20.30;51.20;;;;;;4994516;28;20192;-72
2022/04/16 06:18:26;;;;;;;1.52;1.42;;;20.30;51.10;;;;;;4994811;28;20192;-73
2022/04/16 06:20:51;;;;;;;1.45;1.35;;;20.30;51.20;;;;;;4994277;28;20262;-73
2022/04/16 06:23:22;;;;;;;2.00;1.90;;;20.30;51.10;;;;;;5010476;28;20185;-73
2022/04/16 06:25:48;;;;;;;1.92;1.83;;;20.30;51.00;;;;;;4996028;28;20189;-73
2022/04/16 06:28:14;;;;;;;1.90;1.80;;;20.30;51.00;;;;;;4994588;28;20224;-73
2022/04/16 06:30:40;;;;;;;2.47;2.28;;;20.30;51.00;;;;;;4978008;28;20280;-71
2022/04/16 06:33:06;;;;;;;2.13;2.03;;;20.30;51.00;;;;;;4994062;28;20271;-74
2022/04/16 06:35:32;;;;;;;4.30;2.08;;;20.30;51.00;;;;;;4994338;28;20223;-74
2022/04/16 06:37:57;;;;;;;4.65;1.80;;;20.40;52.30;;;;;;4994400;28;20181;-73
2022/04/16 06:40:24;;;;;;;3.08;2.05;;;20.40;53.10;;;;;;4978242;28;20191;-74
2022/04/16 06:42:52;;;;;;;7.32;1.70;;;20.40;53.40;;;;;;5010411;28;20216;-74
2022/04/16 06:45:21;;;;;;;2.55;1.77;;;20.40;53.60;;;;;;4994325;28;20185;-74
2022/04/16 06:47:47;;;;;;;6.13;1.67;;;20.40;53.70;;;;;;5010467;28;20255;-74
2022/04/16 06:50:13;;;;;;;3.63;2.00;;;20.50;53.80;;;;;;5010303;28;20578;-72
2022/04/16 06:52:39;;;;;;;4.15;1.60;;;20.50;53.80;;;;;;4993458;28;20308;-74
2022/04/16 06:55:06;;;;;;;3.25;1.63;;;20.50;53.90;;;;;;5009843;28;20280;-74
2022/04/16 06:57:32;;;;;;;2.58;1.45;;;20.50;53.90;;;;;;4993683;28;20177;-74
2022/04/16 06:59:58;;;;;;;3.35;1.45;;;20.50;53.90;;;;;;5009916;28;20235;-74
2022/04/16 07:02:23;;;;;;;2.17;1.30;;;20.50;54.00;;;;;;5010085;28;20208;-74
2022/04/16 07:04:49;;;;;;;2.40;1.45;;;20.50;54.00;;;;;;4993661;28;20208;-73
2022/04/16 07:07:15;;;;;;;2.85;1.50;;;20.50;54.00;;;;;;5009836;28;20192;-73
2022/04/16 07:09:41;;;;;;;3.05;1.25;;;20.60;54.10;;;;;;4993674;28;20197;-74
2022/04/16 07:12:09;;;;;;;4.60;1.40;;;20.50;54.00;;;;;;4988909;28;20697;-74
2022/04/16 07:14:37;;;;;;;6.93;1.70;;;20.60;54.20;;;;;;4990496;28;20642;-74
2022/04/16 07:17:03;;;;;;;5.53;1.88;;;20.60;54.30;;;;;;4974359;28;20189;-75
2022/04/16 07:19:30;;;;;;;3.13;1.50;;;20.60;54.50;;;;;;4975242;28;20236;-74
2022/04/16 07:21:57;;;;;;;2.97;1.83;;;20.60;54.60;;;;;;4990227;28;20240;-74
2022/04/16 07:24:25;;;;;;;2.90;1.70;;;20.60;54.70;;;;;;4990465;28;20280;-74
2022/04/16 07:26:53;;;;;;;4.28;2.10;;;20.60;54.80;;;;;;4958083;28;20217;-72
2022/04/16 07:29:26;;;;;;;2.45;1.38;;;20.60;54.80;;;;;;4973821;28;20217;-71
2022/04/16 07:31:52;;;;;;;4.47;1.80;;;20.60;54.80;;;;;;4989627;28;20213;-72
2022/04/16 07:34:18;;;;;;;4.78;2.05;;;20.60;54.80;;;;;;4973639;28;20182;-72
2022/04/16 07:36:46;;;;;;;6.93;1.85;;;20.60;54.90;;;;;;4973750;28;20198;-72
2022/04/16 07:39:13;;;;;;;5.13;1.65;;;20.60;54.90;;;;;;4957522;28;20198;-72
2022/04/16 07:41:39;;;;;;;5.50;2.20;;;20.60;55.00;;;;;;4957457;28;20204;-72
2022/04/16 07:44:06;;;;;;;6.30;2.05;;;20.60;55.00;;;;;;4973703;28;20198;-72
2022/04/16 07:46:34;;;;;;;3.85;1.60;;;20.60;54.90;;;;;;4957610;28;20560;-72
2022/04/16 07:49:01;;;;;;;4.70;1.83;;;20.60;54.90;;;;;;4973289;28;20296;-72
2022/04/16 07:51:27;;;;;;;2.50;1.70;;;20.60;54.90;;;;;;4973054;28;20221;-72
2022/04/16 07:53:55;;;;;;;3.75;1.63;;;20.60;54.90;;;;;;4957282;28;20283;-72
2022/04/16 07:56:22;;;;;;;2.53;1.50;;;20.60;54.90;;;;;;4957511;28;20182;-72
2022/04/16 07:58:48;;;;;;;3.25;1.30;;;20.60;54.90;;;;;;4973493;28;20764;-72
2022/04/16 08:01:14;;;;;;;5.82;1.60;;;20.60;54.90;;;;;;4972919;28;20681;-71
2022/04/16 08:03:40;;;;;;;2.67;1.58;;;20.60;54.90;;;;;;4973389;28;20185;-72
2022/04/16 08:06:06;;;;;;;2.95;1.80;;;20.50;54.80;;;;;;4956803;28;20194;-72
2022/04/16 08:08:32;;;;;;;5.50;1.88;;;20.60;55.50;;;;;;4973332;28;20220;-72
2022/04/16 08:10:57;;;;;;;3.97;1.63;;;20.60;54.80;;;;;;4973231;28;20205;-72
2022/04/16 08:13:24;;;;;;;3.53;2.00;;;20.50;54.80;;;;;;4957095;28;20181;-72
2022/04/16 08:15:51;;;;;;;4.82;2.00;;;20.60;54.80;;;;;;4956916;28;20182;-73
2022/04/16 08:18:16;;;;;;;5.70;2.05;;;20.60;54.70;;;;;;4956779;28;20185;-73
2022/04/16 08:20:43;;;;;;;4.00;2.10;;;20.60;54.60;;;;;;4956707;28;20190;-73
2022/04/16 08:23:09;;;;;;;3.30;2.10;;;20.60;54.60;;;;;;4956956;28;20185;-73
2022/04/16 08:28:04;;;;;;;6.07;1.95;;;20.60;54.60;;;;;;4972836;28;20245;-73
2022/04/16 08:30:31;;;;;;;4.15;1.60;;;20.60;54.70;;;;;;4956493;28;20186;-73
2022/04/16 08:32:58;;;;;;;4.30;1.70;;;20.50;54.50;;;;;;4956480;28;20254;-73
2022/04/16 08:35:24;;;;;;;4.07;1.70;;;20.50;54.50;;;;;;4972560;28;20218;-71
2022/04/16 08:37:50;;;;;;;3.67;1.52;;;20.50;54.60;;;;;;4972664;28;20616;-72
2022/04/16 08:40:18;;;;;;;4.32;1.70;;;20.50;54.60;;;;;;4956448;28;20294;-72
2022/04/16 08:42:48;;;;;;;3.90;1.60;;;20.50;54.70;;;;;;4956327;28;20209;-73
2022/04/16 08:45:14;;;;;;;2.90;1.85;;;20.60;54.70;;;;;;4972621;28;20235;-73
2022/04/16 08:47:41;;;;;;;2.58;1.50;;;20.60;54.80;;;;;;4972482;28;20248;-73
2022/04/16 08:50:10;;;;;;;1.95;1.65;;;20.50;54.70;;;;;;4972544;28;20182;-73
2022/04/16 08:52:37;;;;;;;3.05;1.60;;;20.60;54.80;;;;;;4972202;28;20848;-73
2022/04/16 08:55:09;;;;;;;6.13;2.00;;;20.60;54.90;;;;;;4972491;28;20236;-73
2022/04/16 08:57:34;;;;;;;4.13;2.00;;;20.60;55.50;;;;;;4972401;28;20182;-73
2022/04/16 09:00:00;;;;;;;4.13;1.95;;;20.60;54.80;;;;;;4956301;28;20257;-74
2022/04/16 09:02:28;;;;;;;3.13;2.13;;;20.60;54.80;;;;;;4972044;28;20213;-73
2022/04/16 09:05:10;;;;;;;2.63;1.88;;;20.60;54.70;;;;;;4956188;28;20186;-73
2022/04/16 09:07:58;;;;;;;5.05;2.10;;;20.50;54.60;;;;;;4956485;28;20274;-73
2022/04/16 09:10:29;;;;;;;3.67;1.60;;;20.60;54.60;;;;;;4956225;28;20633;-73
2022/04/16 09:13:01;;;;;;;1.88;1.52;;;20.50;54.40;;;;;;4975088;28;20192;-73
2022/04/16 09:15:29;;;;;;;1.88;1.48;;;20.50;54.40;;;;;;4992807;28;20201;-73
2022/04/16 09:18:07;;;;;;;3.80;1.63;;;20.60;54.40;;;;;;4960163;28;20193;-73
2022/04/16 09:20:40;;;;;;;2.70;1.63;;;20.60;54.50;;;;;;4995833;28;20185;-73
2022/04/16 09:23:20;;;;;;;3.63;1.77;;;20.60;54.50;;;;;;4979523;28;20231;-73
2022/04/16 09:25:47;;;;;;;4.88;2.15;;;20.50;54.40;;;;;;4996737;28;20172;-72
2022/04/16 09:28:19;;;;;;;2.70;1.60;;;20.60;54.40;;;;;;4995402;28;20240;-73
2022/04/16 09:30:53;;;;;;;4.82;1.95;;;20.50;54.30;;;;;;4979213;28;20188;-73
2022/04/16 09:33:20;;;;;;;2.30;1.70;;;20.50;54.30;;;;;;4995090;28;20183;-73
2022/04/16 09:35:46;;;;;;;2.65;1.83;;;20.60;54.30;;;;;;4979258;28;20288;-73
2022/04/16 09:38:12;;;;;;;3.38;1.60;;;20.50;54.30;;;;;;4962894;28;20184;-72
2022/04/16 09:40:38;;;;;;;5.75;2.00;;;20.50;54.20;;;;;;4962691;28;20580;-72
2022/04/16 09:43:08;;;;;;;5.70;1.80;;;20.50;54.20;;;;;;4995092;28;20185;-72
2022/04/16 09:45:39;;;;;;;6.15;2.05;;;20.50;54.20;;;;;;4962855;28;20198;-70
2022/04/16 09:48:13;;;;;;;5.97;2.00;;;20.50;54.30;;;;;;4962764;28;20219;-72
2022/04/16 09:50:41;;;;;;;3.42;1.40;;;20.60;54.40;;;;;;4978932;28;20247;-72
2022/04/16 09:53:08;;;;;;;4.60;1.75;;;20.60;54.50;;;;;;4994809;28;20173;-73
2022/04/16 09:55:35;;;;;;;2.67;1.80;;;20.60;54.60;;;;;;5005886;22;20224;-71
2022/04/16 09:58:06;;;;;;;3.50;2.00;;;20.60;55.20;;;;;;5032173;28;20207;-72
2022/04/16 10:00:36;;;;;;;3.10;1.98;;;20.60;54.70;;;;;;4999929;28;20188;-71
2022/04/16 10:03:06;;;;;;;2.55;1.55;;;20.70;54.80;;;;;;4999594;28;20222;-71
2022/04/16 10:05:32;;;;;;;4.63;2.20;;;20.60;54.80;;;;;;5015801;28;20183;-71
2022/04/16 10:07:59;;;;;;;2.53;1.75;;;20.60;54.90;;;;;;5027497;28;20210;-72
2022/04/16 10:10:30;;;;;;;2.67;1.90;;;20.70;55.00;;;;;;5035964;28;20184;-72
2022/04/16 10:13:04;;;;;;;3.25;1.67;;;20.60;54.90;;;;;;5019606;28;20180;-72
2022/04/16 10:15:57;;;;;;;3.83;1.80;;;20.60;55.00;;;;;;5025938;28;20176;-72
2022/04/16 10:18:27;;;;;;;4.07;1.52;;;20.70;55.00;;;;;;5014953;28;20237;-73
2022/04/16 10:20:59;;;;;;;4.85;1.73;;;20.60;55.00;;;;;;5014746;28;20191;-72
2022/04/16 10:23:32;;;;;;;5.00;1.40;;;20.70;55.20;;;;;;4998010;28;20184;-72
2022/04/16 10:26:11;;;;;;;4.72;1.83;;;20.60;55.10;;;;;;4999063;28;20294;-72
2022/04/16 10:28:51;;;;;;;6.82;2.00;;;20.60;55.20;;;;;;5015179;28;20207;-72
2022/04/16 10:31:24;;;;;;;2.97;2.40;;;20.60;55.20;;;;;;5015487;28;20176;-71
2022/04/16 10:34:11;;;;;;;2.83;2.03;;;20.60;55.20;;;;;;5014501;28;20183;-72
2022/04/16 10:36:42;;;;;;;4.78;2.00;;;20.60;55.20;;;;;;5015402;28;20200;-71
2022/04/16 10:39:27;;;;;;;4.20;1.65;;;20.60;55.30;;;;;;5015577;28;20172;-72
2022/04/16 10:42:04;;;;;;;2.60;1.30;;;20.60;55.20;;;;;;5014252;28;20604;-72
2022/04/16 10:44:51;;;;;;;2.45;1.30;;;20.70;55.40;;;;;;5014474;28;20212;-72
2022/04/16 10:47:18;;;;;;;2.53;1.75;;;20.60;55.30;;;;;;4997467;28;20215;-72
2022/04/16 10:49:44;;;;;;;4.25;1.90;;;20.60;55.40;;;;;;4998037;28;20216;-72
2022/04/16 10:52:28;;;;;;;2.53;1.85;;;20.60;55.40;;;;;;4999310;28;20251;-72
2022/04/16 10:55:14;;;;;;;4.45;1.83;;;20.60;55.40;;;;;;5014624;28;20628;-73
2022/04/16 10:57:40;;;;;;;5.47;1.80;;;20.60;55.30;;;;;;4997529;28;20286;-72
2022/04/16 11:00:13;;;;;;;3.83;1.67;;;20.60;55.40;;;;;;5014849;28;20267;-72
2022/04/16 11:02:39;;;;;;;3.08;1.58;;;20.60;55.40;;;;;;4997123;28;20180;-72
2022/04/16 11:05:08;;;;;;;5.03;1.50;;;20.70;55.40;;;;;;5014580;28;20263;-71
2022/04/16 11:07:37;;;;;;;5.25;1.35;;;20.60;55.40;;;;;;5013935;28;20204;-71
2022/04/16 11:10:07;;;;;;;8.40;1.67;;;20.60;55.50;;;;;;4994861;28;20185;-71
2022/04/16 11:12:33;;;;;;;6.50;1.80;;;20.70;55.60;;;;;;4994939;28;20185;-71
2022/04/16 11:15:00;;;;;;;6.03;1.73;;;20.70;55.60;;;;;;4995518;28;20204;-72
2022/04/16 11:17:27;;;;;;;7.05;2.08;;;20.70;55.60;;;;;;4977981;28;20205;-72
2022/04/16 11:20:02;;;;;;;6.18;1.92;;;20.70;55.60;;;;;;4994071;28;20205;-72
2022/04/16 11:22:28;;;;;;;4.95;2.00;;;20.70;55.60;;;;;;4994047;28;20185;-72
2022/04/16 11:24:55;;;;;;;8.20;2.30;;;20.70;55.50;;;;;;4993939;28;20185;-71
2022/04/16 11:35:59;;;;;;;6.60;1.50;;;20.70;55.40;;;;;;5012984;28;20226;-71
2022/04/16 11:38:33;;;;;;;6.85;1.92;;;20.70;55.40;;;;;;5014796;28;20180;-72
2022/04/16 11:41:01;;;;;;;8.63;2.13;;;20.70;55.40;;;;;;4998062;28;20183;-72
2022/04/16 11:43:31;;;;;;;6.68;2.40;;;20.70;55.30;;;;;;5010474;28;20183;-72
2022/04/16 11:45:59;;;;;;;4.75;2.17;;;20.70;55.30;;;;;;5028342;28;20226;-72
2022/04/16 11:48:25;;;;;;;4.25;2.15;;;20.70;55.20;;;;;;5014710;28;20208;-72
2022/04/16 11:50:52;;;;;;;4.50;1.80;;;20.70;55.20;;;;;;5013461;28;20184;-72
2022/04/16 11:53:17;;;;;;;9.93;2.00;;;20.70;55.20;;;;;;5014403;28;20184;-73
2022/04/16 11:55:49;;;;;;;4.40;1.60;;;20.70;55.20;;;;;;5015122;28;20274;-72
2022/04/16 11:58:15;;;;;;;5.97;2.22;;;20.70;55.30;;;;;;5013059;28;20195;-72
2022/04/16 12:00:54;;;;;;;3.67;1.98;;;20.70;55.20;;;;;;4996668;28;20184;-72
2022/04/16 12:03:20;;;;;;;3.33;1.50;;;20.70;55.30;;;;;;5012579;28;20225;-72
2022/04/16 12:05:48;;;;;;;3.25;1.55;;;20.70;55.40;;;;;;5012686;28;20220;-73
2022/04/16 12:08:16;;;;;;;3.22;1.63;;;20.70;55.40;;;;;;5012852;28;20212;-72
2022/04/16 12:10:49;;;;;;;3.40;1.80;;;20.80;55.40;;;;;;5028392;28;20195;-73
2022/04/16 12:13:15;;;;;;;4.38;1.55;;;20.80;55.40;;;;;;5004308;28;20204;-72
2022/04/16 12:15:43;;;;;;;5.90;1.80;;;20.70;55.40;;;;;;5029658;28;20237;-72
2022/04/16 12:18:15;;;;;;;6.90;1.80;;;20.80;55.40;;;;;;5013669;28;20191;-72
2022/04/16 12:20:47;;;;;;;2.25;1.73;;;20.70;55.40;;;;;;5013783;28;20191;-73
2022/04/16 12:23:21;;;;;;;2.92;1.65;;;20.80;55.40;;;;;;5013892;28;20195;-72
2022/04/16 12:25:48;;;;;;;5.15;1.90;;;20.70;55.40;;;;;;4996648;28;20349;-72
2022/04/16 12:28:14;;;;;;;4.28;1.85;;;20.80;55.50;;;;;;5013023;28;20214;-72
2022/04/16 12:30:49;;;;;;;3.40;1.63;;;20.80;55.30;;;;;;5012099;28;20194;-72
2022/04/16 12:33:15;;;;;;;3.28;1.98;;;20.80;55.30;;;;;;5013246;28;20202;-72
2022/04/16 12:35:47;;;;;;;3.20;1.90;;;20.80;55.30;;;;;;5012052;28;20211;-72
2022/04/16 12:38:17;;;;;;;3.20;1.63;;;20.80;55.30;;;;;;5013102;28;20186;-72
2022/04/16 12:40:44;;;;;;;2.97;1.48;;;20.80;55.30;;;;;;5012157;28;20172;-72
2022/04/16 12:43:10;;;;;;;3.33;1.27;;;20.80;55.40;;;;;;5028080;28;20176;-72
2022/04/16 12:45:36;;;;;;;4.68;1.70;;;20.80;55.30;;;;;;5012804;28;20184;-72
2022/04/16 12:48:03;;;;;;;2.92;1.73;;;20.80;55.30;;;;;;5011778;28;20554;-72
2022/04/16 12:50:33;;;;;;;4.00;1.60;;;20.80;55.10;;;;;;5011810;28;20188;-71
2022/04/16 12:52:59;;;;;;;4.97;1.60;;;20.80;55.20;;;;;;5010920;28;20200;-71
2022/04/16 12:55:26;;;;;;;5.55;1.30;;;20.80;55.20;;;;;;4994997;28;20563;-72
2022/04/16 12:57:52;;;;;;;3.30;1.52;;;20.80;55.30;;;;;;4995457;28;20276;-72
2022/04/16 13:00:18;;;;;;;6.95;1.98;;;20.80;55.80;;;;;;5011776;28;20271;-72
2022/04/16 13:02:46;;;;;;;12.35;6.55;;;20.80;55.40;;;;;;4995234;28;20176;-72
2022/04/16 13:05:15;;;;;;;5.18;2.30;;;20.90;55.40;;;;;;4995095;28;20234;-72
2022/04/16 13:07:41;;;;;;;3.08;1.90;;;20.80;55.30;;;;;;4994919;28;20687;-71
2022/04/16 13:10:09;;;;;;;5.38;1.80;;;20.80;55.30;;;;;;5011673;28;20275;-72
2022/04/16 13:12:37;;;;;;;2.78;1.70;;;20.80;55.50;;;;;;5011265;28;20240;-72
2022/04/16 13:15:04;;;;;;;3.00;1.85;;;20.80;55.60;;;;;;5011318;28;20195;-72
2022/04/16 13:17:30;;;;;;;4.38;2.30;;;20.90;55.70;;;;;;5011336;28;20235;-72